Time;durP1;ratioP1;P1;durP2;ratioP2;P2;SDS_P1;SDS_P2;PMS_P1;PMS_P2;Temp;Humidity;BMP_temperature;BMP_pressure;BME280_temperature;BME280_humidity;BME280_pressure;Samples;Min_cycle;Max_cycle;Signal;HPM_P1;HPM_P2
2022/05/21 00:00:16;;;;;;;5.03;4.53;;;18.20;99.90;;;;;;7373880;19;20327;-75
2022/05/21 00:02:42;;;;;;;5.03;4.15;;;18.20;99.90;;;;;;7377922;19;20690;-76
2022/05/21 00:05:08;;;;;;;5.20;4.63;;;18.30;99.90;;;;;;7373425;19;20866;-75
2022/05/21 00:07:34;;;;;;;5.07;4.57;;;18.30;99.90;;;;;;7376613;19;20305;-75
2022/05/21 00:10:00;;;;;;;4.85;4.45;;;18.20;99.90;;;;;;7379104;19;20343;-74
2022/05/21 00:12:25;;;;;;;4.80;4.30;;;18.30;99.90;;;;;;7376417;19;20754;-76
2022/05/21 00:14:54;;;;;;;4.03;3.73;;;18.20;99.90;;;;;;7372133;19;20682;-75
2022/05/21 00:17:20;;;;;;;4.10;3.70;;;18.20;99.90;;;;;;7377172;19;20365;-75
2022/05/21 00:19:45;;;;;;;3.88;3.58;;;18.10;99.90;;;;;;7378998;19;20341;-76
2022/05/21 00:22:11;;;;;;;5.23;4.20;;;18.10;99.90;;;;;;7376357;19;20376;-74
2022/05/21 00:24:36;;;;;;;4.68;4.10;;;18.10;99.90;;;;;;7378537;19;20361;-77
2022/05/21 00:27:02;;;;;;;4.50;3.70;;;18.00;99.90;;;;;;7375723;19;20368;-74
2022/05/21 00:29:28;;;;;;;4.75;3.20;;;17.90;99.90;;;;;;7376120;19;20340;-74
2022/05/21 00:31:54;;;;;;;3.00;2.80;;;17.80;99.90;;;;;;7377588;19;20722;-73
2022/05/21 00:34:20;;;;;;;2.83;2.63;;;17.60;99.90;;;;;;7376719;19;20323;-73
2022/05/21 00:36:45;;;;;;;2.90;2.65;;;17.50;99.90;;;;;;7373107;19;20359;-74
2022/05/21 00:39:11;;;;;;;2.30;2.10;;;17.30;99.90;;;;;;7379895;19;20348;-75
2022/05/21 00:41:38;;;;;;;1.90;1.80;;;17.10;99.90;;;;;;7340911;19;20355;-76
2022/05/21 00:44:04;;;;;;;1.50;1.40;;;17.00;99.90;;;;;;7377977;19;20360;-75
2022/05/21 00:46:32;;;;;;;1.45;1.30;;;16.80;99.90;;;;;;7371912;19;20860;-74
2022/05/21 00:49:06;;;;;;;1.27;1.20;;;16.60;99.90;;;;;;7376301;19;20356;-73
2022/05/21 00:51:35;;;;;;;2.00;1.20;;;16.40;99.90;;;;;;7375415;19;20357;-73
2022/05/21 00:54:02;;;;;;;1.05;1.02;;;16.30;99.90;;;;;;7376982;19;20348;-74
2022/05/21 00:56:28;;;;;;;3.15;1.30;;;16.20;99.90;;;;;;7373120;19;20394;-74
2022/05/21 01:01:41;;;;;;;2.30;1.10;;;16.00;99.90;;;;;;7377668;19;20332;-73
2022/05/21 01:04:07;;;;;;;1.10;1.10;;;15.90;99.90;;;;;;7377764;19;20725;-74
2022/05/21 01:06:33;;;;;;;1.27;1.17;;;15.80;99.90;;;;;;7371914;19;20301;-75
2022/05/21 01:08:58;;;;;;;1.70;1.10;;;15.80;99.90;;;;;;7375572;19;20864;-72
2022/05/21 01:11:24;;;;;;;1.87;1.10;;;15.70;99.90;;;;;;7376893;19;20317;-74
2022/05/21 01:13:50;;;;;;;1.20;1.10;;;15.70;99.90;;;;;;7377000;19;20828;-73
2022/05/21 01:16:16;;;;;;;1.30;1.20;;;15.70;99.90;;;;;;7370125;19;20328;-73
2022/05/21 01:18:41;;;;;;;1.20;1.10;;;15.70;99.90;;;;;;7375804;19;20337;-73
2022/05/21 01:21:07;;;;;;;1.67;1.20;;;15.60;99.90;;;;;;7375681;19;20321;-74
2022/05/21 01:23:33;;;;;;;1.17;1.10;;;15.60;99.90;;;;;;7377310;19;20349;-74
2022/05/21 01:25:59;;;;;;;1.70;1.10;;;15.60;99.90;;;;;;7368559;19;20357;-74
2022/05/21 01:28:26;;;;;;;0.93;0.90;;;15.60;99.90;;;;;;7377085;19;20344;-74
2022/05/21 01:30:56;;;;;;;0.73;0.73;;;15.60;99.90;;;;;;7374248;19;20340;-73
2022/05/21 01:33:24;;;;;;;0.95;0.93;;;15.60;99.90;;;;;;7378390;19;20360;-73
2022/05/21 01:35:50;;;;;;;1.58;0.98;;;15.50;99.90;;;;;;7370890;19;20856;-75
2022/05/21 01:38:17;;;;;;;0.90;0.90;;;15.40;99.90;;;;;;7375017;19;20348;-73
2022/05/21 01:40:42;;;;;;;0.65;0.65;;;15.40;99.90;;;;;;7372637;19;20341;-73
2022/05/21 01:45:52;;;;;;;0.80;0.80;;;15.40;99.90;;;;;;7265969;19;2004822;-73
2022/05/21 01:48:22;;;;;;;0.70;0.70;;;15.30;99.90;;;;;;7375569;19;20360;-74
2022/05/21 01:50:49;;;;;;;0.80;0.80;;;15.30;99.90;;;;;;7382165;19;20352;-73
2022/05/21 01:53:15;;;;;;;2.58;0.98;;;15.20;99.90;;;;;;7384138;19;20308;-73
2022/05/21 01:55:42;;;;;;;0.90;0.80;;;15.20;99.90;;;;;;7377551;19;20352;-74
2022/05/21 01:58:07;;;;;;;1.10;1.00;;;15.10;99.90;;;;;;7379826;19;20340;-73
2022/05/21 02:00:33;;;;;;;0.90;0.90;;;15.10;99.90;;;;;;7382902;19;20915;-73
2022/05/21 02:02:59;;;;;;;1.00;1.00;;;15.10;99.90;;;;;;7381640;19;20364;-74
2022/05/21 02:05:24;;;;;;;0.80;0.80;;;15.10;99.90;;;;;;7379423;19;20356;-74
2022/05/21 02:07:50;;;;;;;1.00;1.00;;;15.00;99.90;;;;;;7380096;19;20366;-75
2022/05/21 02:10:16;;;;;;;1.00;1.00;;;15.00;99.90;;;;;;7381916;19;20544;-75
2022/05/21 02:12:41;;;;;;;0.95;0.95;;;15.10;99.90;;;;;;7379927;19;20328;-74
2022/05/21 02:15:07;;;;;;;1.13;1.03;;;15.00;99.90;;;;;;7378162;19;20375;-74
2022/05/21 02:17:33;;;;;;;1.20;1.00;;;15.00;99.90;;;;;;7380604;19;20313;-73
2022/05/21 02:19:59;;;;;;;2.88;1.10;;;15.00;99.90;;;;;;7382821;19;20324;-75
2022/05/21 02:22:24;;;;;;;0.97;0.97;;;15.00;99.90;;;;;;7383952;19;20360;-73
2022/05/21 02:24:50;;;;;;;1.00;1.00;;;15.10;99.90;;;;;;7376059;19;20359;-73
2022/05/21 02:27:17;;;;;;;1.20;1.00;;;15.00;99.90;;;;;;7379155;19;20340;-73
2022/05/21 02:29:42;;;;;;;1.00;1.00;;;15.00;99.90;;;;;;7380936;19;20348;-74
2022/05/21 02:32:08;;;;;;;2.60;1.20;;;14.90;99.90;;;;;;7379471;19;20369;-75
2022/05/21 02:34:34;;;;;;;0.90;0.90;;;14.90;99.90;;;;;;7380191;19;20325;-72
2022/05/21 02:39:44;;;;;;;1.55;1.00;;;14.80;99.90;;;;;;7381562;19;21042;-72
2022/05/21 02:44:54;;;;;;;2.13;1.08;;;14.90;99.90;;;;;;7377347;19;20340;-73
2022/05/21 02:47:20;;;;;;;1.90;1.10;;;14.80;99.90;;;;;;7377851;19;20351;-73
2022/05/21 02:49:45;;;;;;;1.23;1.05;;;14.80;99.90;;;;;;7380648;19;20717;-74
2022/05/21 02:52:11;;;;;;;1.03;1.00;;;14.80;99.90;;;;;;7379298;19;20319;-73
2022/05/21 02:54:36;;;;;;;1.57;1.07;;;14.80;99.90;;;;;;7383228;19;20349;-74
2022/05/21 02:57:03;;;;;;;1.80;1.00;;;14.80;99.90;;;;;;7379090;19;20333;-74
2022/05/21 02:59:29;;;;;;;1.00;0.90;;;14.80;99.90;;;;;;7378146;19;20950;-74
2022/05/21 03:01:55;;;;;;;1.00;1.00;;;14.80;99.90;;;;;;7380474;19;20328;-72
2022/05/21 03:04:20;;;;;;;2.63;0.97;;;14.80;99.90;;;;;;7359796;19;20339;-73
2022/05/21 03:06:46;;;;;;;1.20;1.10;;;14.80;99.90;;;;;;7377999;19;20364;-73
2022/05/21 03:11:55;;;;;;;1.00;0.80;;;14.80;99.90;;;;;;7279886;19;2004394;-73
2022/05/21 03:14:21;;;;;;;1.10;1.00;;;14.70;99.90;;;;;;7382570;19;20332;-72
2022/05/21 03:16:46;;;;;;;1.10;1.00;;;14.80;99.90;;;;;;7378298;19;20349;-73
2022/05/21 03:19:12;;;;;;;2.33;0.88;;;14.70;99.90;;;;;;7382904;19;20320;-73
2022/05/21 03:21:38;;;;;;;0.90;0.90;;;14.70;99.90;;;;;;7379662;19;20749;-75
2022/05/21 03:24:04;;;;;;;1.27;1.17;;;14.70;99.90;;;;;;7381978;19;20443;-76
2022/05/21 03:26:30;;;;;;;2.15;1.10;;;14.70;99.90;;;;;;7377454;19;20404;-75
2022/05/21 03:28:56;;;;;;;1.20;1.10;;;14.70;99.90;;;;;;7382344;19;20850;-75
2022/05/21 03:31:21;;;;;;;1.20;1.10;;;14.70;99.90;;;;;;7378661;19;20934;-75
2022/05/21 03:33:47;;;;;;;1.00;1.00;;;14.60;99.90;;;;;;7381052;19;20321;-75
2022/05/21 03:36:12;;;;;;;1.20;1.10;;;14.60;99.90;;;;;;7375913;19;20350;-73
2022/05/21 03:38:38;;;;;;;2.67;1.13;;;14.60;99.90;;;;;;7381183;19;21042;-74
2022/05/21 03:41:03;;;;;;;2.00;1.40;;;14.60;99.90;;;;;;7380562;19;20412;-75
2022/05/21 03:43:29;;;;;;;0.95;0.95;;;14.50;99.90;;;;;;7380885;19;20345;-74
2022/05/21 03:45:55;;;;;;;1.20;1.20;;;14.50;99.90;;;;;;7375230;19;20427;-74
2022/05/21 03:48:21;;;;;;;1.20;1.10;;;14.50;99.90;;;;;;7379956;19;20356;-74
2022/05/21 03:50:46;;;;;;;1.40;1.20;;;14.40;99.90;;;;;;7380919;19;20340;-73
2022/05/21 03:53:14;;;;;;;3.17;1.20;;;14.40;99.90;;;;;;7381261;19;20851;-74
2022/05/21 03:55:40;;;;;;;1.40;1.20;;;14.40;99.90;;;;;;7376507;19;20377;-74
2022/05/21 03:58:06;;;;;;;1.47;1.37;;;14.40;99.90;;;;;;7381236;19;20706;-74
2022/05/21 04:00:32;;;;;;;2.83;1.33;;;14.40;99.90;;;;;;7378472;19;20357;-73
2022/05/21 04:02:59;;;;;;;1.30;1.20;;;14.40;99.90;;;;;;7380217;19;20690;-73
2022/05/21 04:05:26;;;;;;;1.70;1.30;;;14.40;99.90;;;;;;7375725;19;20331;-74
2022/05/21 04:07:52;;;;;;;1.40;1.30;;;14.40;99.90;;;;;;7378910;19;20340;-74
2022/05/21 04:10:17;;;;;;;1.40;1.30;;;14.40;99.90;;;;;;7378246;19;20867;-77
2022/05/21 04:12:43;;;;;;;1.50;1.40;;;14.30;99.90;;;;;;7380096;19;20312;-74
2022/05/21 04:15:10;;;;;;;1.80;1.35;;;14.30;99.90;;;;;;7375537;19;20357;-73
2022/05/21 04:17:35;;;;;;;1.50;1.40;;;14.40;99.90;;;;;;7379640;19;21191;-73
2022/05/21 04:20:02;;;;;;;1.50;1.33;;;14.40;99.90;;;;;;7382282;19;20360;-73
2022/05/21 04:22:28;;;;;;;1.50;1.40;;;14.30;99.90;;;;;;7377266;19;21047;-75
2022/05/21 04:24:53;;;;;;;2.30;1.30;;;14.30;99.90;;;;;;7378140;19;20433;-74
2022/05/21 04:27:19;;;;;;;4.35;1.45;;;14.40;99.90;;;;;;7377585;19;20348;-73
2022/05/21 04:29:45;;;;;;;1.27;1.17;;;14.40;99.90;;;;;;7380701;19;20353;-75
2022/05/21 04:32:10;;;;;;;1.40;1.30;;;14.40;99.90;;;;;;7381569;19;20657;-74
2022/05/21 04:34:36;;;;;;;1.50;1.40;;;14.50;99.90;;;;;;7377758;19;20385;-74
2022/05/21 04:37:01;;;;;;;1.42;1.33;;;14.50;99.90;;;;;;7376424;19;20360;-76
2022/05/21 04:39:27;;;;;;;3.10;1.10;;;14.40;99.90;;;;;;7379947;19;20360;-79
2022/05/21 04:41:53;;;;;;;1.30;1.20;;;14.40;99.90;;;;;;7377323;19;20323;-76
2022/05/21 04:44:18;;;;;;;1.40;1.10;;;14.40;99.90;;;;;;7379368;19;20349;-75
2022/05/21 04:46:44;;;;;;;1.10;1.10;;;14.40;99.90;;;;;;7376963;19;20705;-76
2022/05/21 04:49:09;;;;;;;1.00;1.00;;;14.40;99.90;;;;;;7381434;19;20408;-75
2022/05/21 04:51:36;;;;;;;1.20;1.10;;;14.30;99.90;;;;;;7381491;19;20408;-75
2022/05/21 04:54:02;;;;;;;2.28;1.05;;;14.20;99.90;;;;;;7378480;19;20345;-74
2022/05/21 04:56:28;;;;;;;1.55;1.05;;;14.20;99.90;;;;;;7375376;19;20948;-73
2022/05/21 04:58:54;;;;;;;1.20;1.10;;;14.10;99.90;;;;;;7380506;19;20344;-76
2022/05/21 05:01:19;;;;;;;1.20;1.20;;;14.10;99.90;;;;;;7376494;19;20329;-74
2022/05/21 05:03:45;;;;;;;1.40;1.30;;;14.20;99.90;;;;;;7381549;19;20316;-73
2022/05/21 05:06:10;;;;;;;1.60;1.38;;;14.20;99.90;;;;;;7372570;19;20370;-73
2022/05/21 05:08:36;;;;;;;1.30;1.20;;;14.20;99.90;;;;;;7377711;19;20332;-73
2022/05/21 05:11:04;;;;;;;1.95;1.35;;;14.30;99.90;;;;;;7376259;19;20425;-73
2022/05/21 05:13:29;;;;;;;1.30;1.30;;;14.30;99.90;;;;;;7379226;19;20412;-73
2022/05/21 05:15:56;;;;;;;1.33;1.30;;;14.40;99.90;;;;;;7370114;19;20320;-75
2022/05/21 05:18:22;;;;;;;2.80;1.35;;;14.50;99.90;;;;;;7379044;19;20360;-73
2022/05/21 05:20:48;;;;;;;1.93;1.23;;;14.50;99.90;;;;;;7370299;19;20456;-75
2022/05/21 05:23:14;;;;;;;1.55;1.35;;;14.50;99.90;;;;;;7377950;19;20423;-73
2022/05/21 05:25:40;;;;;;;1.17;1.10;;;14.50;99.90;;;;;;7380972;19;20913;-75
2022/05/21 05:28:15;;;;;;;1.02;1.02;;;14.50;99.90;;;;;;7383839;19;20472;-74
2022/05/21 05:30:41;;;;;;;1.25;1.15;;;14.60;99.90;;;;;;7383944;19;20339;-74
2022/05/21 05:33:07;;;;;;;1.07;1.07;;;14.70;99.90;;;;;;7385614;19;20309;-73
2022/05/21 05:35:32;;;;;;;1.20;1.10;;;14.70;99.90;;;;;;7382562;19;20363;-73
2022/05/21 05:37:58;;;;;;;0.90;0.90;;;14.90;99.90;;;;;;7382685;19;20320;-74
2022/05/21 05:40:24;;;;;;;1.03;1.03;;;15.00;99.90;;;;;;7386792;19;20472;-73
2022/05/21 05:42:50;;;;;;;2.53;1.10;;;15.00;99.90;;;;;;7383689;19;20416;-75
2022/05/21 05:45:16;;;;;;;3.47;1.20;;;15.10;99.90;;;;;;7379991;19;20768;-73
2022/05/21 05:47:41;;;;;;;1.27;1.17;;;15.10;99.90;;;;;;7382455;19;20344;-76
2022/05/21 05:50:08;;;;;;;0.90;0.90;;;15.10;99.90;;;;;;7381174;19;20347;-75
2022/05/21 05:52:33;;;;;;;1.30;1.05;;;15.10;99.90;;;;;;7383314;19;20329;-75
2022/05/21 05:54:59;;;;;;;0.90;0.90;;;15.10;99.90;;;;;;7381150;19;20357;-73
2022/05/21 05:57:24;;;;;;;0.90;0.90;;;15.20;99.90;;;;;;7379856;19;20875;-75
2022/05/21 05:59:50;;;;;;;1.02;1.00;;;15.20;99.90;;;;;;7384531;19;20430;-74
2022/05/21 06:05:17;;;;;;;1.10;1.00;;;15.20;99.90;;;;;;7278921;19;2005040;-74
2022/05/21 06:07:47;;;;;;;1.00;1.00;;;15.30;99.90;;;;;;7382295;19;20312;-73
2022/05/21 06:10:15;;;;;;;1.15;1.05;;;15.30;99.90;;;;;;7383697;19;20353;-73
2022/05/21 06:12:40;;;;;;;0.88;0.88;;;15.40;99.90;;;;;;7381581;19;20416;-74
2022/05/21 06:15:07;;;;;;;1.00;1.00;;;15.40;99.90;;;;;;7378103;19;21806;-74
2022/05/21 06:17:32;;;;;;;1.15;1.08;;;15.50;99.90;;;;;;7378859;19;20897;-73
2022/05/21 06:19:58;;;;;;;3.17;1.30;;;15.30;99.90;;;;;;7382030;19;20340;-74
2022/05/21 06:22:24;;;;;;;1.30;1.00;;;15.00;99.90;;;;;;7375802;19;20352;-74
2022/05/21 06:24:51;;;;;;;1.20;1.10;;;15.00;99.90;;;;;;7373930;19;20720;-74
2022/05/21 06:27:17;;;;;;;1.35;1.13;;;14.90;99.90;;;;;;7369581;19;21189;-73
2022/05/21 06:29:42;;;;;;;1.97;1.30;;;15.30;99.90;;;;;;7375212;19;20357;-72
2022/05/21 06:32:10;;;;;;;2.13;1.25;;;15.20;99.90;;;;;;7375946;19;20344;-72
2022/05/21 06:34:36;;;;;;;1.33;1.00;;;15.10;99.90;;;;;;7374288;19;20381;-73
2022/05/21 06:37:05;;;;;;;1.30;1.10;;;15.30;99.90;;;;;;7371317;19;20894;-74
2022/05/21 06:39:32;;;;;;;1.43;1.10;;;15.40;99.90;;;;;;7377606;19;20313;-73
2022/05/21 06:41:57;;;;;;;1.27;1.17;;;15.40;99.90;;;;;;7375424;19;20388;-74
2022/05/21 06:44:23;;;;;;;1.00;1.00;;;15.50;99.90;;;;;;7374430;19;20461;-74
2022/05/21 06:46:49;;;;;;;3.15;1.30;;;15.40;99.90;;;;;;7372201;19;20861;-73
2022/05/21 06:49:17;;;;;;;1.13;1.10;;;15.50;99.90;;;;;;7376280;19;20417;-73
2022/05/21 06:51:43;;;;;;;1.05;1.02;;;15.50;99.90;;;;;;7375624;19;21206;-73
2022/05/21 06:54:08;;;;;;;3.58;1.10;;;15.60;99.90;;;;;;7373357;19;20332;-73
2022/05/21 06:56:34;;;;;;;1.23;1.13;;;15.40;99.90;;;;;;7368576;19;20889;-73
2022/05/21 06:59:00;;;;;;;1.33;1.10;;;15.20;99.90;;;;;;7377093;19;20416;-73
2022/05/21 07:01:26;;;;;;;1.20;1.10;;;15.30;99.90;;;;;;7373972;19;20383;-72
2022/05/21 07:03:51;;;;;;;1.37;1.27;;;15.50;99.90;;;;;;7376994;19;20345;-73
2022/05/21 07:09:01;;;;;;;1.55;1.25;;;15.70;99.90;;;;;;7378139;19;20336;-72
2022/05/21 07:11:28;;;;;;;1.33;1.00;;;15.60;99.90;;;;;;7374063;19;20345;-71
2022/05/21 07:13:53;;;;;;;1.20;1.10;;;15.70;99.90;;;;;;7375876;19;20312;-73
2022/05/21 07:16:19;;;;;;;1.37;1.00;;;15.90;99.90;;;;;;7370614;19;21231;-71
2022/05/21 07:18:46;;;;;;;1.80;1.20;;;16.10;99.90;;;;;;7374806;19;20372;-70
2022/05/21 07:21:15;;;;;;;3.47;1.13;;;16.30;99.90;;;;;;7376913;19;20348;-69
2022/05/21 07:23:41;;;;;;;1.88;1.10;;;16.30;99.90;;;;;;7376680;19;20772;-71
2022/05/21 07:26:07;;;;;;;1.20;1.10;;;16.40;99.90;;;;;;7369279;19;20480;-70
2022/05/21 07:28:33;;;;;;;1.57;1.20;;;16.40;99.90;;;;;;7376644;19;20353;-71
2022/05/21 07:30:58;;;;;;;7.00;2.75;;;16.20;99.90;;;;;;7369550;19;20700;-71
2022/05/21 07:33:24;;;;;;;4.37;1.30;;;16.40;99.90;;;;;;7376957;19;20328;-71
2022/05/21 07:35:50;;;;;;;10.48;3.03;;;16.40;99.90;;;;;;7369000;19;20416;-71
2022/05/21 07:38:15;;;;;;;2.90;1.27;;;16.50;99.90;;;;;;7375636;19;21022;-71
2022/05/21 07:40:42;;;;;;;2.72;1.85;;;16.50;99.90;;;;;;7378224;19;20340;-70
2022/05/21 07:43:19;;;;;;;4.70;1.73;;;16.40;99.90;;;;;;7376909;19;20717;-70
2022/05/21 07:45:45;;;;;;;2.25;1.30;;;16.50;99.90;;;;;;7369898;19;20329;-70
2022/05/21 07:48:12;;;;;;;4.00;1.10;;;16.80;99.90;;;;;;7376444;19;20368;-70
2022/05/21 07:50:40;;;;;;;1.40;1.30;;;17.20;99.90;;;;;;7377405;19;20732;-71
2022/05/21 07:53:13;;;;;;;1.92;1.20;;;17.20;99.90;;;;;;7379021;19;20321;-71
2022/05/21 07:55:39;;;;;;;3.35;1.50;;;17.10;99.90;;;;;;7370410;19;20344;-72
2022/05/21 07:58:05;;;;;;;1.55;1.33;;;16.90;99.90;;;;;;7377547;19;20351;-70
2022/05/21 08:00:30;;;;;;;1.35;1.25;;;17.00;99.90;;;;;;7378646;19;20320;-72
2022/05/21 08:02:56;;;;;;;1.97;1.37;;;17.20;99.90;;;;;;7347256;19;20332;-71
2022/05/21 08:05:21;;;;;;;1.47;1.37;;;17.40;99.90;;;;;;7368203;19;20316;-72
2022/05/21 08:07:51;;;;;;;1.38;1.17;;;17.60;99.90;;;;;;7374316;19;20359;-71
2022/05/21 08:10:17;;;;;;;1.30;1.20;;;17.50;99.90;;;;;;7383329;19;20879;-71
2022/05/21 08:12:43;;;;;;;2.45;1.50;;;17.60;99.90;;;;;;7373672;19;20308;-71
2022/05/21 08:15:09;;;;;;;1.57;1.17;;;17.70;99.90;;;;;;7376101;19;20340;-71
2022/05/21 08:17:34;;;;;;;1.30;1.20;;;17.60;99.90;;;;;;7355165;19;20364;-71
2022/05/21 08:20:00;;;;;;;1.30;1.20;;;17.60;99.90;;;;;;7378548;19;20447;-70
2022/05/21 08:27:56;;;;;;;1.27;1.17;;;18.00;99.90;;;;;;7377824;19;20308;-71
2022/05/21 08:30:21;;;;;;;2.40;1.27;;;17.80;99.90;;;;;;7377952;19;20340;-71
2022/05/21 08:32:47;;;;;;;1.40;1.30;;;17.80;99.90;;;;;;7376984;19;21081;-71
2022/05/21 08:35:12;;;;;;;1.38;1.10;;;17.80;99.90;;;;;;7369715;19;20324;-71
2022/05/21 08:37:38;;;;;;;3.00;1.10;;;17.70;99.90;;;;;;7373326;19;21101;-72
2022/05/21 08:40:04;;;;;;;1.03;0.97;;;18.00;99.90;;;;;;7375720;19;20316;-72
2022/05/21 08:42:45;;;;;;;2.17;1.33;;;18.00;99.90;;;;;;7371481;19;20734;-71
2022/05/21 08:45:20;;;;;;;1.50;1.20;;;17.90;99.90;;;;;;7371710;19;20364;-71
2022/05/21 08:47:58;;;;;;;1.27;1.20;;;18.20;99.90;;;;;;7371892;19;20348;-72
2022/05/21 08:50:23;;;;;;;1.35;1.10;;;18.20;99.90;;;;;;7375137;19;20348;-71
2022/05/21 08:52:57;;;;;;;1.40;1.30;;;18.40;99.90;;;;;;7369930;19;20343;-71
2022/05/21 08:55:32;;;;;;;1.45;1.27;;;18.20;99.90;;;;;;7368535;19;20368;-71
2022/05/21 08:58:01;;;;;;;2.75;1.30;;;18.20;99.90;;;;;;7371105;19;20375;-72
2022/05/21 09:00:37;;;;;;;1.00;1.00;;;18.20;99.90;;;;;;7371668;19;20300;-74
2022/05/21 09:03:07;;;;;;;3.30;1.10;;;18.30;99.90;;;;;;7373647;19;20377;-72
2022/05/21 09:05:33;;;;;;;1.90;1.20;;;18.20;99.90;;;;;;7368589;19;20340;-73
2022/05/21 09:08:08;;;;;;;2.43;1.40;;;18.00;99.90;;;;;;7370167;19;20355;-73
2022/05/21 09:10:50;;;;;;;3.90;1.30;;;18.20;99.90;;;;;;7272340;19;2004293;-72
2022/05/21 09:13:16;;;;;;;1.63;1.43;;;18.40;99.90;;;;;;7269930;19;2004380;-73
2022/05/21 09:18:25;;;;;;;2.30;1.42;;;18.50;99.90;;;;;;7270682;19;2004545;-71
2022/05/21 09:20:56;;;;;;;1.10;1.00;;;18.60;99.90;;;;;;7371235;19;20341;-72
2022/05/21 09:23:22;;;;;;;1.63;1.13;;;18.90;99.90;;;;;;7371325;19;20360;-72
2022/05/21 09:26:05;;;;;;;2.30;1.30;;;18.80;99.90;;;;;;7365779;19;20345;-71
2022/05/21 09:28:31;;;;;;;1.27;1.17;;;19.10;99.90;;;;;;7269728;19;2004323;-72
2022/05/21 09:30:57;;;;;;;1.53;1.23;;;19.00;99.90;;;;;;7369595;19;20316;-72
2022/05/21 09:33:34;;;;;;;1.77;1.20;;;19.50;99.90;;;;;;7372461;19;20373;-72
2022/05/21 09:36:00;;;;;;;1.60;1.23;;;19.80;99.90;;;;;;7366718;19;20749;-72
2022/05/21 09:38:31;;;;;;;1.75;1.10;;;20.00;99.90;;;;;;7367457;19;20416;-72
2022/05/21 09:41:18;;;;;;;1.13;1.02;;;20.00;99.90;;;;;;7272673;19;2004283;-72
2022/05/21 09:46:39;;;;;;;1.80;1.20;;;19.70;99.90;;;;;;7372278;19;20328;-72
2022/05/21 09:49:15;;;;;;;1.87;1.13;;;20.10;99.90;;;;;;7371864;19;20352;-71
2022/05/21 09:51:41;;;;;;;1.00;1.00;;;20.50;99.90;;;;;;7373831;19;20358;-72
2022/05/21 09:54:19;;;;;;;1.52;1.20;;;20.60;99.90;;;;;;7374168;19;20397;-72
2022/05/21 09:56:52;;;;;;;1.85;1.13;;;20.50;99.90;;;;;;7271218;19;2004945;-71
2022/05/21 09:59:20;;;;;;;2.70;1.20;;;19.70;99.90;;;;;;7270565;19;2004425;-71
2022/05/21 10:01:50;;;;;;;2.38;1.20;;;19.60;99.90;;;;;;7373183;19;20767;-72
2022/05/21 10:04:23;;;;;;;1.10;1.00;;;20.00;99.90;;;;;;7373690;19;20420;-71
2022/05/21 10:06:53;;;;;;;1.37;1.10;;;20.20;99.90;;;;;;7371238;19;20891;-72
2022/05/21 10:12:13;;;;;;;1.05;0.90;;;20.40;99.90;;;;;;7277529;19;2004606;-72
2022/05/21 10:14:53;;;;;;;2.42;1.02;;;20.90;99.90;;;;;;7378449;19;20361;-72
2022/05/21 10:17:30;;;;;;;1.02;0.73;;;20.50;99.90;;;;;;7377021;19;20895;-73
2022/05/21 10:20:10;;;;;;;1.30;0.82;;;20.40;99.90;;;;;;7379739;19;20333;-73
2022/05/21 10:23:11;;;;;;;1.90;1.00;;;20.30;99.90;;;;;;7378545;19;20370;-73
2022/05/21 10:25:49;;;;;;;1.75;1.00;;;20.10;99.90;;;;;;7274151;19;2004523;-74
2022/05/21 10:28:26;;;;;;;1.70;0.80;;;20.30;99.90;;;;;;7276386;19;2004322;-72
2022/05/21 10:31:02;;;;;;;1.60;0.90;;;20.40;99.90;;;;;;7278221;19;2004200;-72
2022/05/21 10:33:42;;;;;;;3.10;1.05;;;20.30;99.90;;;;;;7277794;19;2019971;-72
2022/05/21 10:36:12;;;;;;;1.13;1.00;;;21.10;99.90;;;;;;7273426;19;2004496;-73
2022/05/21 10:39:21;;;;;;;1.08;0.85;;;21.00;99.90;;;;;;7380538;19;20313;-72
2022/05/21 10:42:05;;;;;;;2.30;0.90;;;21.40;99.90;;;;;;7276069;19;2004287;-74
2022/05/21 10:44:39;;;;;;;1.27;1.05;;;21.40;99.90;;;;;;7279890;19;2004338;-72
2022/05/21 10:47:31;;;;;;;1.02;0.80;;;21.10;98.70;;;;;;7279497;19;2004483;-73
2022/05/21 10:50:08;;;;;;;1.50;1.08;;;21.40;99.90;;;;;;7279623;19;2020023;-75
2022/05/21 10:53:07;;;;;;;2.27;0.90;;;21.40;99.00;;;;;;7383248;19;20911;-73
2022/05/21 10:56:06;;;;;;;1.25;1.00;;;20.90;99.90;;;;;;7276146;19;2019823;-72
2022/05/21 10:58:41;;;;;;;1.00;1.00;;;21.10;99.50;;;;;;7280670;19;2004222;-72
2022/05/21 11:01:39;;;;;;;2.13;1.00;;;20.90;99.90;;;;;;7380363;19;20348;-73
2022/05/21 11:04:37;;;;;;;1.30;0.98;;;20.90;99.20;;;;;;7278606;19;2004444;-73
2022/05/21 11:07:31;;;;;;;1.38;1.08;;;21.00;99.10;;;;;;7275543;19;2019778;-74
2022/05/21 11:10:12;;;;;;;1.48;0.93;;;20.80;99.80;;;;;;7279031;19;2004579;-73
2022/05/21 11:12:55;;;;;;;1.40;0.90;;;20.60;99.90;;;;;;7383372;19;20313;-73
2022/05/21 11:15:43;;;;;;;0.90;0.90;;;20.10;99.90;;;;;;7379077;19;20903;-72
2022/05/21 11:18:37;;;;;;;1.13;1.02;;;19.80;99.90;;;;;;7278936;19;2004636;-72
2022/05/21 11:21:15;;;;;;;1.13;1.02;;;19.30;99.90;;;;;;7277069;19;2004336;-72
2022/05/21 11:23:50;;;;;;;1.40;1.00;;;18.90;99.90;;;;;;7381047;19;20349;-72
2022/05/21 11:26:23;;;;;;;0.98;0.85;;;18.90;99.90;;;;;;7375285;19;20357;-74
2022/05/21 11:28:55;;;;;;;1.30;1.00;;;19.00;99.90;;;;;;7381855;19;20348;-72
2022/05/21 11:37:22;;;;;;;1.27;1.07;;;19.30;99.90;;;;;;7379078;19;21016;-74
2022/05/21 11:39:49;;;;;;;1.20;1.10;;;19.40;99.90;;;;;;7380168;19;20340;-73
2022/05/21 11:42:23;;;;;;;1.60;1.15;;;19.30;99.90;;;;;;7381218;19;20329;-72
2022/05/21 11:44:56;;;;;;;2.40;1.20;;;19.00;99.90;;;;;;7376042;19;20345;-72
2022/05/21 11:47:22;;;;;;;2.47;1.35;;;18.60;99.90;;;;;;7378676;19;20508;-72
2022/05/21 11:49:54;;;;;;;1.50;1.40;;;18.00;99.90;;;;;;7380977;19;20357;-72
2022/05/21 11:52:31;;;;;;;1.45;1.30;;;17.30;99.90;;;;;;7377430;19;20699;-71
2022/05/21 11:54:57;;;;;;;2.08;1.70;;;17.00;99.90;;;;;;7378004;19;20430;-73
2022/05/21 11:57:35;;;;;;;1.75;1.60;;;17.00;99.90;;;;;;7379650;19;20336;-71
2022/05/21 12:00:03;;;;;;;1.50;1.40;;;16.80;99.90;;;;;;7380984;19;20315;-70
2022/05/21 12:02:59;;;;;;;2.00;1.60;;;17.90;99.90;;;;;;7379657;19;20324;-71
2022/05/21 12:05:34;;;;;;;2.55;1.58;;;18.80;99.90;;;;;;7274340;19;2004460;-71
2022/05/21 12:08:21;;;;;;;2.10;1.45;;;19.60;99.90;;;;;;7278021;19;2004335;-72
2022/05/21 12:11:10;;;;;;;1.63;1.50;;;19.70;99.90;;;;;;7276617;19;2004507;-71
2022/05/21 12:13:39;;;;;;;2.80;1.60;;;19.80;99.90;;;;;;7381897;19;20370;-72
2022/05/21 12:16:16;;;;;;;1.80;1.60;;;19.80;99.90;;;;;;7376531;19;20328;-76
2022/05/21 12:18:57;;;;;;;2.70;1.60;;;20.40;99.90;;;;;;7377764;19;21342;-73
2022/05/21 12:21:43;;;;;;;1.70;1.60;;;20.60;99.90;;;;;;7377470;19;20320;-73
2022/05/21 12:24:35;;;;;;;3.17;1.83;;;20.30;99.90;;;;;;7381128;19;20297;-74
2022/05/21 12:27:22;;;;;;;2.10;1.60;;;20.60;99.90;;;;;;7272166;19;2005534;-74
2022/05/21 12:29:50;;;;;;;2.05;1.92;;;20.70;99.90;;;;;;7380065;19;20366;-73
2022/05/21 12:32:23;;;;;;;1.95;1.75;;;20.30;99.90;;;;;;7376919;19;20329;-72
2022/05/21 12:35:16;;;;;;;2.43;1.70;;;20.40;99.90;;;;;;7375392;19;20340;-74
2022/05/21 12:37:49;;;;;;;1.45;1.40;;;20.40;99.90;;;;;;7275326;19;2004583;-73
2022/05/21 12:40:50;;;;;;;2.70;1.40;;;20.80;99.90;;;;;;7378077;19;20470;-74
2022/05/21 12:43:15;;;;;;;2.08;1.80;;;21.10;99.90;;;;;;7274783;19;2005775;-73
2022/05/21 12:45:49;;;;;;;1.60;1.50;;;21.10;99.90;;;;;;7372940;19;20338;-73
2022/05/21 12:48:31;;;;;;;2.80;1.50;;;21.40;99.90;;;;;;7376927;19;20381;-73
2022/05/21 12:50:58;;;;;;;1.65;1.50;;;21.30;99.90;;;;;;7377776;19;20324;-73
2022/05/21 12:53:46;;;;;;;1.83;1.55;;;21.70;99.90;;;;;;7379628;19;20339;-73
2022/05/21 12:56:19;;;;;;;2.10;1.50;;;21.80;99.90;;;;;;7372864;19;20408;-73
2022/05/21 12:58:44;;;;;;;1.50;1.30;;;21.90;99.90;;;;;;7376973;19;20360;-73
2022/05/21 13:01:23;;;;;;;1.85;1.45;;;21.50;99.90;;;;;;7375536;19;20309;-73
2022/05/21 13:03:49;;;;;;;3.42;1.45;;;21.70;99.90;;;;;;7378115;19;20328;-73
2022/05/21 13:06:17;;;;;;;3.37;1.50;;;21.50;99.90;;;;;;7372290;19;20344;-74
2022/05/21 13:08:42;;;;;;;2.05;1.40;;;20.60;99.90;;;;;;7376864;19;20344;-73
2022/05/21 13:11:18;;;;;;;1.33;1.23;;;20.20;99.90;;;;;;7376711;19;20348;-74
2022/05/21 13:13:44;;;;;;;1.20;1.10;;;20.20;99.90;;;;;;7378676;19;20335;-73
2022/05/21 13:16:17;;;;;;;3.70;1.50;;;20.20;99.90;;;;;;7374436;19;20308;-70
2022/05/21 13:18:50;;;;;;;1.30;1.20;;;20.00;99.90;;;;;;7375607;19;20446;-71
2022/05/21 13:21:25;;;;;;;1.50;1.30;;;19.80;99.90;;;;;;7378181;19;20343;-71
2022/05/21 13:23:56;;;;;;;1.90;1.35;;;19.90;99.90;;;;;;7377782;19;20867;-71
2022/05/21 13:26:24;;;;;;;1.63;1.37;;;19.70;99.90;;;;;;7373024;19;20364;-70
2022/05/21 13:28:49;;;;;;;1.25;1.15;;;19.30;99.90;;;;;;7374780;19;20308;-70
2022/05/21 13:31:22;;;;;;;1.53;1.30;;;19.40;99.90;;;;;;7375747;19;20356;-70
2022/05/21 13:33:51;;;;;;;1.60;1.40;;;19.40;99.90;;;;;;7379274;19;20347;-71
2022/05/21 13:36:20;;;;;;;1.90;1.00;;;20.00;99.90;;;;;;7371881;19;20343;-70